sensor_id;sensor_type;location;lat;lon;timestamp;P1;durP1;ratioP1;P2;durP2;ratioP2
51943;SDS011;37969;53.132;6.370;2023-03-12T00:00:30;15.25;;;6.88;;
51943;SDS011;37969;53.132;6.370;2023-03-12T00:02:56;10.38;;;6.35;;
51943;SDS011;37969;53.132;6.370;2023-03-12T00:05:23;15.38;;;6.55;;
51943;SDS011;37969;53.132;6.370;2023-03-12T00:07:50;12.70;;;6.45;;
51943;SDS011;37969;53.132;6.370;2023-03-12T00:10:17;12.43;;;6.40;;
51943;SDS011;37969;53.132;6.370;2023-03-12T00:12:43;11.30;;;6.28;;
51943;SDS011;37969;53.132;6.370;2023-03-12T00:15:10;12.15;;;6.32;;
51943;SDS011;37969;53.132;6.370;2023-03-12T00:17:36;12.82;;;6.78;;
51943;SDS011;37969;53.132;6.370;2023-03-12T00:20:03;11.73;;;6.20;;
51943;SDS011;37969;53.132;6.370;2023-03-12T00:22:31;14.02;;;5.95;;
51943;SDS011;37969;53.132;6.370;2023-03-12T00:24:57;12.43;;;6.22;;
51943;SDS011;37969;53.132;6.370;2023-03-12T00:27:24;14.77;;;6.93;;
51943;SDS011;37969;53.132;6.370;2023-03-12T00:29:50;12.82;;;7.00;;
51943;SDS011;37969;53.132;6.370;2023-03-12T00:32:16;11.02;;;6.30;;
51943;SDS011;37969;53.132;6.370;2023-03-12T00:34:43;18.23;;;6.85;;
51943;SDS011;37969;53.132;6.370;2023-03-12T00:37:09;10.90;;;7.05;;
51943;SDS011;37969;53.132;6.370;2023-03-12T00:39:35;10.82;;;6.97;;
51943;SDS011;37969;53.132;6.370;2023-03-12T00:42:01;13.52;;;7.00;;
51943;SDS011;37969;53.132;6.370;2023-03-12T00:44:27;15.82;;;7.30;;
51943;SDS011;37969;53.132;6.370;2023-03-12T00:46:53;16.58;;;7.22;;
51943;SDS011;37969;53.132;6.370;2023-03-12T00:49:19;18.58;;;7.80;;
51943;SDS011;37969;53.132;6.370;2023-03-12T00:51:46;16.73;;;7.88;;
51943;SDS011;37969;53.132;6.370;2023-03-12T00:54:12;14.15;;;7.45;;
51943;SDS011;37969;53.132;6.370;2023-03-12T00:56:38;11.32;;;7.32;;
51943;SDS011;37969;53.132;6.370;2023-03-12T00:59:04;15.88;;;7.80;;
51943;SDS011;37969;53.132;6.370;2023-03-12T01:01:30;19.35;;;8.70;;
51943;SDS011;37969;53.132;6.370;2023-03-12T01:03:56;13.38;;;8.35;;
51943;SDS011;37969;53.132;6.370;2023-03-12T01:06:23;16.33;;;8.48;;
51943;SDS011;37969;53.132;6.370;2023-03-12T01:08:50;13.48;;;8.38;;
51943;SDS011;37969;53.132;6.370;2023-03-12T01:11:17;21.13;;;8.80;;
51943;SDS011;37969;53.132;6.370;2023-03-12T01:13:43;16.55;;;8.18;;
51943;SDS011;37969;53.132;6.370;2023-03-12T01:16:09;14.02;;;7.40;;
51943;SDS011;37969;53.132;6.370;2023-03-12T01:18:35;12.88;;;8.07;;
51943;SDS011;37969;53.132;6.370;2023-03-12T01:21:02;15.85;;;9.30;;
51943;SDS011;37969;53.132;6.370;2023-03-12T01:23:28;13.07;;;7.75;;
51943;SDS011;37969;53.132;6.370;2023-03-12T01:25:55;14.57;;;8.52;;
51943;SDS011;37969;53.132;6.370;2023-03-12T01:28:21;18.05;;;7.95;;
51943;SDS011;37969;53.132;6.370;2023-03-12T01:30:48;14.93;;;8.02;;
51943;SDS011;37969;53.132;6.370;2023-03-12T01:33:14;21.23;;;7.68;;
51943;SDS011;37969;53.132;6.370;2023-03-12T01:35:41;15.45;;;7.82;;
51943;SDS011;37969;53.132;6.370;2023-03-12T01:38:08;17.90;;;8.13;;
51943;SDS011;37969;53.132;6.370;2023-03-12T01:43:20;21.23;;;8.25;;
51943;SDS011;37969;53.132;6.370;2023-03-12T01:48:24;15.23;;;7.95;;
51943;SDS011;37969;53.132;6.370;2023-03-12T01:50:51;24.27;;;9.65;;
51943;SDS011;37969;53.132;6.370;2023-03-12T01:53:17;16.27;;;8.00;;
51943;SDS011;37969;53.132;6.370;2023-03-12T01:55:43;15.48;;;8.60;;
51943;SDS011;37969;53.132;6.370;2023-03-12T01:58:09;14.52;;;7.72;;
51943;SDS011;37969;53.132;6.370;2023-03-12T02:00:35;14.55;;;8.45;;
51943;SDS011;37969;53.132;6.370;2023-03-12T02:03:03;11.95;;;7.10;;
51943;SDS011;37969;53.132;6.370;2023-03-12T02:05:32;13.97;;;7.40;;
51943;SDS011;37969;53.132;6.370;2023-03-12T02:08:03;11.30;;;7.68;;
51943;SDS011;37969;53.132;6.370;2023-03-12T02:10:30;14.50;;;9.25;;
51943;SDS011;37969;53.132;6.370;2023-03-12T02:12:56;16.58;;;8.38;;
51943;SDS011;37969;53.132;6.370;2023-03-12T02:15:22;17.13;;;7.60;;
51943;SDS011;37969;53.132;6.370;2023-03-12T02:17:48;10.02;;;6.78;;
51943;SDS011;37969;53.132;6.370;2023-03-12T02:20:16;17.20;;;8.20;;
51943;SDS011;37969;53.132;6.370;2023-03-12T02:22:46;17.90;;;6.97;;
51943;SDS011;37969;53.132;6.370;2023-03-12T02:25:25;16.17;;;7.10;;
51943;SDS011;37969;53.132;6.370;2023-03-12T02:27:55;16.95;;;7.47;;
51943;SDS011;37969;53.132;6.370;2023-03-12T02:30:21;15.63;;;7.32;;
51943;SDS011;37969;53.132;6.370;2023-03-12T02:32:48;13.90;;;7.13;;
51943;SDS011;37969;53.132;6.370;2023-03-12T02:35:15;9.65;;;6.80;;
51943;SDS011;37969;53.132;6.370;2023-03-12T02:37:48;16.67;;;7.28;;
51943;SDS011;37969;53.132;6.370;2023-03-12T02:40:17;17.90;;;7.68;;
51943;SDS011;37969;53.132;6.370;2023-03-12T02:42:45;13.05;;;7.65;;
51943;SDS011;37969;53.132;6.370;2023-03-12T02:45:11;14.07;;;7.25;;
51943;SDS011;37969;53.132;6.370;2023-03-12T02:47:37;14.65;;;7.38;;
51943;SDS011;37969;53.132;6.370;2023-03-12T02:50:04;14.40;;;8.70;;
51943;SDS011;37969;53.132;6.370;2023-03-12T02:52:30;11.60;;;7.65;;
51943;SDS011;37969;53.132;6.370;2023-03-12T02:54:59;14.45;;;7.00;;
51943;SDS011;37969;53.132;6.370;2023-03-12T02:57:26;11.45;;;6.50;;
51943;SDS011;37969;53.132;6.370;2023-03-12T02:59:52;14.07;;;7.38;;
51943;SDS011;37969;53.132;6.370;2023-03-12T03:02:18;10.38;;;6.80;;
51943;SDS011;37969;53.132;6.370;2023-03-12T03:04:44;11.13;;;5.95;;
51943;SDS011;37969;53.132;6.370;2023-03-12T03:07:11;19.25;;;6.30;;
51943;SDS011;37969;53.132;6.370;2023-03-12T03:09:39;13.50;;;6.55;;
51943;SDS011;37969;53.132;6.370;2023-03-12T03:12:05;10.18;;;5.68;;
51943;SDS011;37969;53.132;6.370;2023-03-12T03:14:31;12.32;;;6.10;;
51943;SDS011;37969;53.132;6.370;2023-03-12T03:16:57;9.50;;;5.15;;
51943;SDS011;37969;53.132;6.370;2023-03-12T03:19:23;12.95;;;6.05;;
51943;SDS011;37969;53.132;6.370;2023-03-12T03:21:49;13.68;;;5.53;;
51943;SDS011;37969;53.132;6.370;2023-03-12T03:24:16;9.50;;;5.13;;
51943;SDS011;37969;53.132;6.370;2023-03-12T03:26:42;9.43;;;5.70;;
51943;SDS011;37969;53.132;6.370;2023-03-12T03:29:08;12.85;;;6.10;;
51943;SDS011;37969;53.132;6.370;2023-03-12T03:31:34;10.80;;;5.53;;
51943;SDS011;37969;53.132;6.370;2023-03-12T03:34:01;9.52;;;5.20;;
51943;SDS011;37969;53.132;6.370;2023-03-12T03:36:27;7.50;;;5.82;;
51943;SDS011;37969;53.132;6.370;2023-03-12T03:38:53;12.48;;;6.03;;
51943;SDS011;37969;53.132;6.370;2023-03-12T03:41:19;10.25;;;5.82;;
51943;SDS011;37969;53.132;6.370;2023-03-12T03:43:47;11.35;;;5.53;;
51943;SDS011;37969;53.132;6.370;2023-03-12T03:46:13;10.32;;;5.65;;
51943;SDS011;37969;53.132;6.370;2023-03-12T03:48:40;10.70;;;5.35;;
51943;SDS011;37969;53.132;6.370;2023-03-12T03:51:06;11.15;;;6.82;;
51943;SDS011;37969;53.132;6.370;2023-03-12T03:53:33;10.57;;;5.93;;
51943;SDS011;37969;53.132;6.370;2023-03-12T03:56:07;14.00;;;5.75;;
51943;SDS011;37969;53.132;6.370;2023-03-12T03:58:33;7.65;;;5.78;;
51943;SDS011;37969;53.132;6.370;2023-03-12T04:00:59;10.60;;;6.45;;
51943;SDS011;37969;53.132;6.370;2023-03-12T04:03:26;10.68;;;6.60;;
51943;SDS011;37969;53.132;6.370;2023-03-12T04:05:53;9.60;;;5.25;;
51943;SDS011;37969;53.132;6.370;2023-03-12T04:08:19;15.30;;;6.00;;
51943;SDS011;37969;53.132;6.370;2023-03-12T04:10:45;10.90;;;5.55;;
51943;SDS011;37969;53.132;6.370;2023-03-12T04:13:11;12.32;;;5.88;;
51943;SDS011;37969;53.132;6.370;2023-03-12T04:15:37;11.98;;;5.78;;
51943;SDS011;37969;53.132;6.370;2023-03-12T04:18:04;11.15;;;5.72;;
51943;SDS011;37969;53.132;6.370;2023-03-12T04:20:30;12.13;;;6.07;;
51943;SDS011;37969;53.132;6.370;2023-03-12T04:22:56;8.32;;;5.20;;
51943;SDS011;37969;53.132;6.370;2023-03-12T04:25:22;9.07;;;5.10;;
51943;SDS011;37969;53.132;6.370;2023-03-12T04:27:48;10.45;;;5.25;;
51943;SDS011;37969;53.132;6.370;2023-03-12T04:30:15;10.80;;;5.57;;
51943;SDS011;37969;53.132;6.370;2023-03-12T04:32:41;8.15;;;5.55;;
51943;SDS011;37969;53.132;6.370;2023-03-12T04:35:07;9.98;;;5.38;;
51943;SDS011;37969;53.132;6.370;2023-03-12T04:37:33;13.60;;;5.28;;
51943;SDS011;37969;53.132;6.370;2023-03-12T04:40:00;10.38;;;5.45;;
51943;SDS011;37969;53.132;6.370;2023-03-12T04:42:27;15.65;;;5.45;;
51943;SDS011;37969;53.132;6.370;2023-03-12T04:44:53;12.60;;;5.55;;
51943;SDS011;37969;53.132;6.370;2023-03-12T04:47:19;15.07;;;5.70;;
51943;SDS011;37969;53.132;6.370;2023-03-12T04:49:45;10.57;;;5.47;;
51943;SDS011;37969;53.132;6.370;2023-03-12T04:52:11;12.30;;;5.93;;
51943;SDS011;37969;53.132;6.370;2023-03-12T04:54:38;10.55;;;5.65;;
51943;SDS011;37969;53.132;6.370;2023-03-12T04:57:04;10.98;;;5.72;;
51943;SDS011;37969;53.132;6.370;2023-03-12T04:59:30;12.73;;;5.28;;
51943;SDS011;37969;53.132;6.370;2023-03-12T05:01:56;9.52;;;5.90;;
51943;SDS011;37969;53.132;6.370;2023-03-12T05:04:22;8.63;;;5.25;;
51943;SDS011;37969;53.132;6.370;2023-03-12T05:06:48;12.43;;;5.70;;
51943;SDS011;37969;53.132;6.370;2023-03-12T05:09:14;11.18;;;6.28;;
51943;SDS011;37969;53.132;6.370;2023-03-12T05:11:40;14.07;;;5.70;;
51943;SDS011;37969;53.132;6.370;2023-03-12T05:14:08;8.20;;;5.60;;
51943;SDS011;37969;53.132;6.370;2023-03-12T05:16:34;12.60;;;5.70;;
51943;SDS011;37969;53.132;6.370;2023-03-12T05:19:00;13.63;;;6.40;;
51943;SDS011;37969;53.132;6.370;2023-03-12T05:21:26;10.35;;;5.88;;
51943;SDS011;37969;53.132;6.370;2023-03-12T05:23:52;15.68;;;6.10;;
51943;SDS011;37969;53.132;6.370;2023-03-12T05:26:21;8.70;;;5.28;;
51943;SDS011;37969;53.132;6.370;2023-03-12T05:28:48;12.17;;;5.93;;
51943;SDS011;37969;53.132;6.370;2023-03-12T05:31:14;11.82;;;5.35;;
51943;SDS011;37969;53.132;6.370;2023-03-12T05:33:40;8.98;;;4.70;;
51943;SDS011;37969;53.132;6.370;2023-03-12T05:36:07;12.95;;;4.97;;
51943;SDS011;37969;53.132;6.370;2023-03-12T05:38:33;8.00;;;5.50;;
51943;SDS011;37969;53.132;6.370;2023-03-12T05:41:00;9.27;;;5.75;;
51943;SDS011;37969;53.132;6.370;2023-03-12T05:43:26;11.88;;;4.97;;
51943;SDS011;37969;53.132;6.370;2023-03-12T05:45:52;10.43;;;5.05;;
51943;SDS011;37969;53.132;6.370;2023-03-12T05:48:19;10.63;;;5.47;;
51943;SDS011;37969;53.132;6.370;2023-03-12T05:50:45;9.82;;;5.72;;
51943;SDS011;37969;53.132;6.370;2023-03-12T05:53:11;9.00;;;5.60;;
51943;SDS011;37969;53.132;6.370;2023-03-12T05:55:38;10.80;;;5.35;;
51943;SDS011;37969;53.132;6.370;2023-03-12T05:58:04;9.02;;;5.75;;
51943;SDS011;37969;53.132;6.370;2023-03-12T06:00:31;12.45;;;5.65;;
51943;SDS011;37969;53.132;6.370;2023-03-12T06:02:59;8.95;;;6.45;;
51943;SDS011;37969;53.132;6.370;2023-03-12T06:05:26;14.48;;;5.93;;
51943;SDS011;37969;53.132;6.370;2023-03-12T06:07:52;9.60;;;5.65;;
51943;SDS011;37969;53.132;6.370;2023-03-12T06:10:18;14.40;;;6.30;;
51943;SDS011;37969;53.132;6.370;2023-03-12T06:12:44;13.65;;;6.22;;
51943;SDS011;37969;53.132;6.370;2023-03-12T06:15:10;14.15;;;6.25;;
51943;SDS011;37969;53.132;6.370;2023-03-12T06:17:36;10.23;;;6.13;;
51943;SDS011;37969;53.132;6.370;2023-03-12T06:20:03;13.15;;;5.85;;
51943;SDS011;37969;53.132;6.370;2023-03-12T06:22:29;11.80;;;6.63;;
51943;SDS011;37969;53.132;6.370;2023-03-12T06:24:55;10.65;;;6.35;;
51943;SDS011;37969;53.132;6.370;2023-03-12T06:27:21;14.88;;;6.60;;
51943;SDS011;37969;53.132;6.370;2023-03-12T06:29:47;14.95;;;6.15;;
51943;SDS011;37969;53.132;6.370;2023-03-12T06:32:14;11.07;;;6.15;;
51943;SDS011;37969;53.132;6.370;2023-03-12T06:34:40;15.70;;;6.13;;
51943;SDS011;37969;53.132;6.370;2023-03-12T06:37:06;13.05;;;6.72;;
51943;SDS011;37969;53.132;6.370;2023-03-12T06:39:32;12.48;;;6.72;;
51943;SDS011;37969;53.132;6.370;2023-03-12T06:41:58;13.38;;;7.05;;
51943;SDS011;37969;53.132;6.370;2023-03-12T06:44:25;11.90;;;6.35;;
51943;SDS011;37969;53.132;6.370;2023-03-12T06:46:51;16.50;;;7.03;;
51943;SDS011;37969;53.132;6.370;2023-03-12T06:49:17;10.88;;;6.55;;
51943;SDS011;37969;53.132;6.370;2023-03-12T06:51:44;16.83;;;7.30;;
51943;SDS011;37969;53.132;6.370;2023-03-12T06:54:10;17.25;;;7.75;;
51943;SDS011;37969;53.132;6.370;2023-03-12T06:56:36;10.65;;;6.95;;
51943;SDS011;37969;53.132;6.370;2023-03-12T06:59:02;20.23;;;7.28;;
51943;SDS011;37969;53.132;6.370;2023-03-12T07:01:29;14.98;;;7.85;;
51943;SDS011;37969;53.132;6.370;2023-03-12T07:03:55;10.70;;;7.18;;
51943;SDS011;37969;53.132;6.370;2023-03-12T07:06:21;14.75;;;7.82;;
51943;SDS011;37969;53.132;6.370;2023-03-12T07:08:48;12.48;;;7.93;;
51943;SDS011;37969;53.132;6.370;2023-03-12T07:11:14;15.55;;;7.90;;
51943;SDS011;37969;53.132;6.370;2023-03-12T07:13:41;13.82;;;8.50;;
51943;SDS011;37969;53.132;6.370;2023-03-12T07:16:08;17.27;;;8.63;;
51943;SDS011;37969;53.132;6.370;2023-03-12T07:18:34;16.55;;;9.57;;
51943;SDS011;37969;53.132;6.370;2023-03-12T07:21:00;16.00;;;9.52;;
51943;SDS011;37969;53.132;6.370;2023-03-12T07:23:26;19.38;;;10.15;;
51943;SDS011;37969;53.132;6.370;2023-03-12T07:25:53;18.90;;;11.05;;
51943;SDS011;37969;53.132;6.370;2023-03-12T07:28:19;15.85;;;10.05;;
51943;SDS011;37969;53.132;6.370;2023-03-12T07:30:46;16.02;;;10.93;;
51943;SDS011;37969;53.132;6.370;2023-03-12T07:33:19;16.15;;;10.73;;
51943;SDS011;37969;53.132;6.370;2023-03-12T07:35:46;23.27;;;12.82;;
51943;SDS011;37969;53.132;6.370;2023-03-12T07:38:12;24.13;;;13.40;;
51943;SDS011;37969;53.132;6.370;2023-03-12T07:40:38;17.58;;;12.13;;
51943;SDS011;37969;53.132;6.370;2023-03-12T07:43:05;19.55;;;13.13;;
51943;SDS011;37969;53.132;6.370;2023-03-12T07:45:36;25.40;;;13.52;;
51943;SDS011;37969;53.132;6.370;2023-03-12T07:48:02;21.92;;;13.23;;
51943;SDS011;37969;53.132;6.370;2023-03-12T07:50:28;23.65;;;14.88;;
51943;SDS011;37969;53.132;6.370;2023-03-12T07:52:54;25.83;;;13.77;;
51943;SDS011;37969;53.132;6.370;2023-03-12T07:55:21;28.83;;;15.23;;
51943;SDS011;37969;53.132;6.370;2023-03-12T07:57:47;24.33;;;15.88;;
51943;SDS011;37969;53.132;6.370;2023-03-12T08:00:13;27.67;;;16.30;;
51943;SDS011;37969;53.132;6.370;2023-03-12T08:02:41;25.73;;;15.60;;
51943;SDS011;37969;53.132;6.370;2023-03-12T08:05:07;26.67;;;16.17;;
51943;SDS011;37969;53.132;6.370;2023-03-12T08:07:34;26.17;;;14.38;;
51943;SDS011;37969;53.132;6.370;2023-03-12T08:10:00;27.77;;;15.40;;
51943;SDS011;37969;53.132;6.370;2023-03-12T08:12:27;24.25;;;15.98;;
51943;SDS011;37969;53.132;6.370;2023-03-12T08:14:53;20.02;;;15.10;;
51943;SDS011;37969;53.132;6.370;2023-03-12T08:17:19;22.15;;;15.40;;
51943;SDS011;37969;53.132;6.370;2023-03-12T08:19:46;29.83;;;16.13;;
51943;SDS011;37969;53.132;6.370;2023-03-12T08:22:12;22.58;;;15.77;;
51943;SDS011;37969;53.132;6.370;2023-03-12T08:24:38;26.45;;;15.57;;
51943;SDS011;37969;53.132;6.370;2023-03-12T08:27:04;21.45;;;14.63;;
51943;SDS011;37969;53.132;6.370;2023-03-12T08:29:30;21.48;;;15.13;;
51943;SDS011;37969;53.132;6.370;2023-03-12T08:31:57;21.00;;;14.50;;
51943;SDS011;37969;53.132;6.370;2023-03-12T08:34:24;21.90;;;13.52;;
51943;SDS011;37969;53.132;6.370;2023-03-12T08:36:50;21.35;;;13.98;;
51943;SDS011;37969;53.132;6.370;2023-03-12T08:39:16;23.02;;;13.60;;
51943;SDS011;37969;53.132;6.370;2023-03-12T08:41:42;25.35;;;14.80;;
51943;SDS011;37969;53.132;6.370;2023-03-12T08:44:08;18.88;;;13.50;;
51943;SDS011;37969;53.132;6.370;2023-03-12T08:46:34;22.23;;;14.55;;
51943;SDS011;37969;53.132;6.370;2023-03-12T08:49:01;19.08;;;14.60;;
51943;SDS011;37969;53.132;6.370;2023-03-12T08:51:27;23.35;;;15.13;;
51943;SDS011;37969;53.132;6.370;2023-03-12T08:53:53;21.58;;;12.80;;
51943;SDS011;37969;53.132;6.370;2023-03-12T08:56:19;19.95;;;13.95;;
51943;SDS011;37969;53.132;6.370;2023-03-12T08:58:45;22.08;;;14.55;;
51943;SDS011;37969;53.132;6.370;2023-03-12T09:01:12;22.65;;;13.30;;
51943;SDS011;37969;53.132;6.370;2023-03-12T09:03:39;24.15;;;15.73;;
51943;SDS011;37969;53.132;6.370;2023-03-12T09:06:07;24.70;;;13.95;;
51943;SDS011;37969;53.132;6.370;2023-03-12T09:08:37;19.00;;;13.15;;
51943;SDS011;37969;53.132;6.370;2023-03-12T09:11:04;22.77;;;14.32;;
51943;SDS011;37969;53.132;6.370;2023-03-12T09:13:30;20.17;;;13.70;;
51943;SDS011;37969;53.132;6.370;2023-03-12T09:15:58;24.80;;;15.73;;
51943;SDS011;37969;53.132;6.370;2023-03-12T09:18:24;19.48;;;14.20;;
51943;SDS011;37969;53.132;6.370;2023-03-12T09:20:50;21.27;;;14.65;;
51943;SDS011;37969;53.132;6.370;2023-03-12T09:23:16;18.10;;;14.93;;
51943;SDS011;37969;53.132;6.370;2023-03-12T09:25:44;20.33;;;14.55;;
51943;SDS011;37969;53.132;6.370;2023-03-12T09:28:10;24.52;;;14.15;;
51943;SDS011;37969;53.132;6.370;2023-03-12T09:30:37;18.25;;;14.00;;
51943;SDS011;37969;53.132;6.370;2023-03-12T09:33:03;22.35;;;14.88;;
51943;SDS011;37969;53.132;6.370;2023-03-12T09:35:29;21.13;;;14.25;;
51943;SDS011;37969;53.132;6.370;2023-03-12T09:37:56;20.50;;;14.25;;
51943;SDS011;37969;53.132;6.370;2023-03-12T09:40:23;19.20;;;15.15;;
51943;SDS011;37969;53.132;6.370;2023-03-12T09:42:52;23.60;;;15.45;;
51943;SDS011;37969;53.132;6.370;2023-03-12T09:45:21;20.55;;;14.95;;
51943;SDS011;37969;53.132;6.370;2023-03-12T09:47:50;21.98;;;14.45;;
51943;SDS011;37969;53.132;6.370;2023-03-12T09:50:20;25.42;;;15.45;;
51943;SDS011;37969;53.132;6.370;2023-03-12T09:52:56;21.73;;;15.00;;
51943;SDS011;37969;53.132;6.370;2023-03-12T09:55:23;21.90;;;17.08;;
51943;SDS011;37969;53.132;6.370;2023-03-12T09:57:50;23.27;;;16.92;;
51943;SDS011;37969;53.132;6.370;2023-03-12T10:00:18;29.38;;;21.45;;
51943;SDS011;37969;53.132;6.370;2023-03-12T10:05:32;32.88;;;22.38;;
51943;SDS011;37969;53.132;6.370;2023-03-12T10:08:03;17.90;;;14.63;;
51943;SDS011;37969;53.132;6.370;2023-03-12T10:10:35;22.40;;;14.88;;
51943;SDS011;37969;53.132;6.370;2023-03-12T10:23:11;25.02;;;15.95;;
51943;SDS011;37969;53.132;6.370;2023-03-12T10:25:45;19.88;;;14.80;;
51943;SDS011;37969;53.132;6.370;2023-03-12T10:28:17;24.27;;;15.85;;
51943;SDS011;37969;53.132;6.370;2023-03-12T10:30:47;21.95;;;15.88;;
51943;SDS011;37969;53.132;6.370;2023-03-12T10:33:15;18.95;;;14.80;;
51943;SDS011;37969;53.132;6.370;2023-03-12T10:35:42;18.48;;;15.30;;
51943;SDS011;37969;53.132;6.370;2023-03-12T10:38:10;25.10;;;16.38;;
51943;SDS011;37969;53.132;6.370;2023-03-12T10:40:38;23.88;;;16.80;;
51943;SDS011;37969;53.132;6.370;2023-03-12T10:43:05;20.75;;;15.82;;
51943;SDS011;37969;53.132;6.370;2023-03-12T10:45:36;22.08;;;16.05;;
51943;SDS011;37969;53.132;6.370;2023-03-12T10:48:05;22.50;;;17.30;;
51943;SDS011;37969;53.132;6.370;2023-03-12T10:50:34;22.57;;;16.87;;
51943;SDS011;37969;53.132;6.370;2023-03-12T10:53:13;18.90;;;15.55;;
51943;SDS011;37969;53.132;6.370;2023-03-12T10:55:39;24.70;;;18.77;;
51943;SDS011;37969;53.132;6.370;2023-03-12T10:58:05;25.05;;;17.65;;
51943;SDS011;37969;53.132;6.370;2023-03-12T11:00:31;23.98;;;18.42;;
51943;SDS011;37969;53.132;6.370;2023-03-12T11:02:59;36.10;;;23.60;;
51943;SDS011;37969;53.132;6.370;2023-03-12T11:05:34;58.05;;;32.55;;
51943;SDS011;37969;53.132;6.370;2023-03-12T11:08:01;69.07;;;36.47;;
51943;SDS011;37969;53.132;6.370;2023-03-12T11:12:59;39.15;;;25.67;;
51943;SDS011;37969;53.132;6.370;2023-03-12T11:20:39;41.30;;;27.02;;
51943;SDS011;37969;53.132;6.370;2023-03-12T11:23:12;44.17;;;26.77;;
51943;SDS011;37969;53.132;6.370;2023-03-12T11:25:38;35.90;;;23.75;;
51943;SDS011;37969;53.132;6.370;2023-03-12T11:28:04;36.92;;;24.88;;
51943;SDS011;37969;53.132;6.370;2023-03-12T11:30:33;33.72;;;23.40;;
51943;SDS011;37969;53.132;6.370;2023-03-12T11:33:01;35.75;;;24.27;;
51943;SDS011;37969;53.132;6.370;2023-03-12T11:36:05;38.28;;;25.85;;
51943;SDS011;37969;53.132;6.370;2023-03-12T11:38:20;38.92;;;23.63;;
51943;SDS011;37969;53.132;6.370;2023-03-12T11:43:24;43.22;;;25.80;;
51943;SDS011;37969;53.132;6.370;2023-03-12T11:48:27;46.60;;;27.52;;
51943;SDS011;37969;53.132;6.370;2023-03-12T11:55:53;56.17;;;33.92;;
51943;SDS011;37969;53.132;6.370;2023-03-12T11:58:29;37.80;;;24.80;;
51943;SDS011;37969;53.132;6.370;2023-03-12T12:01:07;36.97;;;22.70;;
51943;SDS011;37969;53.132;6.370;2023-03-12T12:03:38;41.03;;;25.08;;
51943;SDS011;37969;53.132;6.370;2023-03-12T12:06:16;36.08;;;23.60;;
51943;SDS011;37969;53.132;6.370;2023-03-12T12:09:11;28.73;;;19.15;;
51943;SDS011;37969;53.132;6.370;2023-03-12T12:14:17;28.20;;;20.77;;
51943;SDS011;37969;53.132;6.370;2023-03-12T12:16:50;31.98;;;20.45;;
51943;SDS011;37969;53.132;6.370;2023-03-12T12:19:22;35.67;;;23.77;;
51943;SDS011;37969;53.132;6.370;2023-03-12T12:25:01;32.90;;;21.67;;
51943;SDS011;37969;53.132;6.370;2023-03-12T12:27:19;36.03;;;22.90;;
51943;SDS011;37969;53.132;6.370;2023-03-12T12:32:16;40.83;;;24.48;;
51943;SDS011;37969;53.132;6.370;2023-03-12T12:34:52;30.45;;;18.35;;
51943;SDS011;37969;53.132;6.370;2023-03-12T12:37:22;36.55;;;21.33;;
51943;SDS011;37969;53.132;6.370;2023-03-12T12:42:17;39.80;;;22.92;;
51943;SDS011;37969;53.132;6.370;2023-03-12T12:44:47;43.88;;;24.00;;
51943;SDS011;37969;53.132;6.370;2023-03-12T12:47:15;34.50;;;19.73;;
51943;SDS011;37969;53.132;6.370;2023-03-12T12:49:47;32.88;;;20.00;;
51943;SDS011;37969;53.132;6.370;2023-03-12T12:52:16;44.75;;;22.60;;
51943;SDS011;37969;53.132;6.370;2023-03-12T12:57:16;42.40;;;21.52;;
51943;SDS011;37969;53.132;6.370;2023-03-12T13:02:20;40.63;;;21.60;;
51943;SDS011;37969;53.132;6.370;2023-03-12T13:04:47;48.55;;;20.35;;
51943;SDS011;37969;53.132;6.370;2023-03-12T13:09:41;43.30;;;17.98;;
51943;SDS011;37969;53.132;6.370;2023-03-12T13:12:13;39.55;;;18.33;;
51943;SDS011;37969;53.132;6.370;2023-03-12T13:14:41;35.30;;;15.82;;
51943;SDS011;37969;53.132;6.370;2023-03-12T13:17:19;40.03;;;17.45;;
51943;SDS011;37969;53.132;6.370;2023-03-12T13:19:46;34.72;;;15.07;;
51943;SDS011;37969;53.132;6.370;2023-03-12T13:24:46;41.92;;;11.02;;
51943;SDS011;37969;53.132;6.370;2023-03-12T13:27:17;33.40;;;10.20;;
51943;SDS011;37969;53.132;6.370;2023-03-12T13:29:44;64.47;;;23.08;;
51943;SDS011;37969;53.132;6.370;2023-03-12T13:34:56;42.75;;;10.77;;
51943;SDS011;37969;53.132;6.370;2023-03-12T13:37:27;46.00;;;11.18;;
51943;SDS011;37969;53.132;6.370;2023-03-12T13:39:54;37.55;;;8.15;;
51943;SDS011;37969;53.132;6.370;2023-03-12T13:42:26;38.67;;;8.93;;
51943;SDS011;37969;53.132;6.370;2023-03-12T13:45:23;31.25;;;8.88;;
51943;SDS011;37969;53.132;6.370;2023-03-12T13:47:45;43.13;;;8.05;;
51943;SDS011;37969;53.132;6.370;2023-03-12T13:50:12;36.80;;;8.73;;
51943;SDS011;37969;53.132;6.370;2023-03-12T13:52:47;35.40;;;8.43;;
51943;SDS011;37969;53.132;6.370;2023-03-12T13:55:20;39.95;;;8.50;;
51943;SDS011;37969;53.132;6.370;2023-03-12T13:57:48;31.20;;;6.57;;
51943;SDS011;37969;53.132;6.370;2023-03-12T14:00:18;35.60;;;8.00;;
51943;SDS011;37969;53.132;6.370;2023-03-12T14:05:11;40.78;;;8.40;;
51943;SDS011;37969;53.132;6.370;2023-03-12T14:07:42;40.65;;;9.52;;
51943;SDS011;37969;53.132;6.370;2023-03-12T14:12:41;49.38;;;9.52;;
51943;SDS011;37969;53.132;6.370;2023-03-12T14:15:16;29.88;;;6.65;;
51943;SDS011;37969;53.132;6.370;2023-03-12T14:17:44;33.60;;;8.82;;
51943;SDS011;37969;53.132;6.370;2023-03-12T14:20:11;40.42;;;9.63;;
51943;SDS011;37969;53.132;6.370;2023-03-12T14:22:40;39.28;;;8.38;;
51943;SDS011;37969;53.132;6.370;2023-03-12T14:25:13;36.23;;;8.30;;
51943;SDS011;37969;53.132;6.370;2023-03-12T14:27:39;40.10;;;8.57;;
51943;SDS011;37969;53.132;6.370;2023-03-12T14:30:10;38.35;;;8.07;;
51943;SDS011;37969;53.132;6.370;2023-03-12T14:32:37;35.85;;;8.00;;
51943;SDS011;37969;53.132;6.370;2023-03-12T14:35:12;47.60;;;8.95;;
51943;SDS011;37969;53.132;6.370;2023-03-12T14:37:39;35.55;;;7.38;;
51943;SDS011;37969;53.132;6.370;2023-03-12T14:40:19;37.53;;;7.70;;
51943;SDS011;37969;53.132;6.370;2023-03-12T14:42:47;38.78;;;7.18;;
51943;SDS011;37969;53.132;6.370;2023-03-12T14:45:15;32.95;;;7.40;;
51943;SDS011;37969;53.132;6.370;2023-03-12T14:47:42;36.70;;;8.30;;
51943;SDS011;37969;53.132;6.370;2023-03-12T14:50:20;48.65;;;8.75;;
51943;SDS011;37969;53.132;6.370;2023-03-12T14:52:46;37.17;;;7.55;;
51943;SDS011;37969;53.132;6.370;2023-03-12T14:55:14;48.78;;;7.55;;
51943;SDS011;37969;53.132;6.370;2023-03-12T14:57:43;49.72;;;7.68;;
51943;SDS011;37969;53.132;6.370;2023-03-12T15:00:13;50.03;;;9.00;;
51943;SDS011;37969;53.132;6.370;2023-03-12T15:02:40;41.67;;;6.88;;
51943;SDS011;37969;53.132;6.370;2023-03-12T15:05:13;57.15;;;9.07;;
51943;SDS011;37969;53.132;6.370;2023-03-12T15:07:40;35.25;;;6.95;;
51943;SDS011;37969;53.132;6.370;2023-03-12T15:10:14;47.60;;;7.78;;
51943;SDS011;37969;53.132;6.370;2023-03-12T15:12:42;41.13;;;7.43;;
51943;SDS011;37969;53.132;6.370;2023-03-12T15:15:18;47.63;;;8.95;;
51943;SDS011;37969;53.132;6.370;2023-03-12T15:17:48;51.45;;;8.25;;
51943;SDS011;37969;53.132;6.370;2023-03-12T15:20:14;53.72;;;10.05;;
51943;SDS011;37969;53.132;6.370;2023-03-12T15:22:41;54.17;;;9.60;;
51943;SDS011;37969;53.132;6.370;2023-03-12T15:25:24;49.25;;;8.45;;
51943;SDS011;37969;53.132;6.370;2023-03-12T15:28:21;50.17;;;8.63;;
51943;SDS011;37969;53.132;6.370;2023-03-12T15:31:03;44.92;;;8.70;;
51943;SDS011;37969;53.132;6.370;2023-03-12T15:33:29;57.03;;;9.50;;
51943;SDS011;37969;53.132;6.370;2023-03-12T15:35:57;54.03;;;10.13;;
51943;SDS011;37969;53.132;6.370;2023-03-12T15:38:24;55.53;;;8.95;;